Time;durP1;ratioP1;P1;durP2;ratioP2;P2;SDS_P1;SDS_P2;PMS_P1;PMS_P2;Temp;Humidity;BMP_temperature;BMP_pressure;BME280_temperature;BME280_humidity;BME280_pressure;Samples;Min_cycle;Max_cycle;Signal;HPM_P1;HPM_P2
2022/09/11 00:01:34;;;;;;;;;;;;;;;16.06;57.28;100345.00;5078414;28;1921;-50
2022/09/11 00:03:59;;;;;;;;;;;;;;;16.02;57.20;100351.28;5085180;28;1155;-49
2022/09/11 00:06:25;;;;;;;;;;;;;;;16.02;57.25;100352.13;5059772;28;1403;-50
2022/09/11 00:08:56;;;;;;;;;;;;;;;15.97;56.97;100341.19;5078243;28;1123;-47
2022/09/11 00:11:21;;;;;;;;;;;;;;;16.88;58.80;100351.13;5077951;28;1013;-49
2022/09/11 00:13:47;;;;;;;;;;;;;;;17.20;59.31;100350.59;5079719;28;1128;-49
2022/09/11 00:16:17;;;;;;;;;;;;;;;16.67;59.26;100348.50;5079912;28;897;-50
2022/09/11 00:18:43;;;;;;;;;;;;;;;16.48;58.66;100350.28;5075375;28;1239;-50
2022/09/11 00:21:08;;;;;;;;;;;;;;;16.39;58.34;100348.13;5072623;28;1981;-51
2022/09/11 00:23:34;;;;;;;;;;;;;;;16.29;58.13;100350.91;5077322;28;818;-48
2022/09/11 00:26:00;;;;;;;;;;;;;;;16.25;57.77;100353.41;5079392;28;1202;-50
2022/09/11 00:28:25;;;;;;;;;;;;;;;16.18;57.58;100355.63;5077769;28;878;-48
2022/09/11 00:30:57;;;;;;;;;;;;;;;16.13;57.42;100368.53;5077307;28;1206;-51
2022/09/11 00:33:24;;;;;;;;;;;;;;;16.07;57.35;100357.63;5077737;28;1045;-50
2022/09/11 00:35:57;;;;;;;;;;;;;;;16.08;57.99;100364.72;5077558;28;957;-47
2022/09/11 00:38:24;;;;;;;;;;;;;;;17.46;58.89;100369.63;5054132;28;994;-51
2022/09/11 00:40:50;;;;;;;;;;;;;;;16.91;59.59;100361.56;5059510;28;1906;-48
2022/09/11 00:43:16;;;;;;;;;;;;;;;16.61;59.09;100360.63;5083900;28;1167;-50
2022/09/11 00:45:42;;;;;;;;;;;;;;;16.52;58.65;100362.31;5077390;28;977;-51
2022/09/11 00:48:08;;;;;;;;;;;;;;;16.40;58.27;100352.50;5058756;28;1148;-47
2022/09/11 00:50:33;;;;;;;;;;;;;;;16.30;57.98;100349.81;5057898;28;1002;-49
2022/09/11 00:53:00;;;;;;;;;;;;;;;16.23;57.67;100355.63;5064104;28;1268;-51
2022/09/11 00:55:26;;;;;;;;;;;;;;;16.16;57.76;100348.78;5059088;28;1025;-50
2022/09/11 00:58:05;;;;;;;;;;;;;;;16.17;57.41;100350.44;5052774;28;1073;-50
2022/09/11 01:00:30;;;;;;;;;;;;;;;16.13;57.33;100365.81;5059328;28;1921;-49
2022/09/11 01:02:56;;;;;;;;;;;;;;;16.11;57.08;100359.78;5074476;28;1068;-49
2022/09/11 01:05:22;;;;;;;;;;;;;;;16.18;57.77;100363.84;5074365;28;1170;-50
2022/09/11 01:07:48;;;;;;;;;;;;;;;17.48;58.96;100355.59;5077135;28;1045;-49
2022/09/11 01:10:13;;;;;;;;;;;;;;;16.88;59.64;100362.09;5058476;28;1116;-49
2022/09/11 01:12:54;;;;;;;;;;;;;;;16.56;59.35;100349.69;5069955;28;1079;-48
2022/09/11 01:15:20;;;;;;;;;;;;;;;16.46;58.61;100338.75;5073632;28;1107;-47
2022/09/11 01:17:49;;;;;;;;;;;;;;;16.39;58.20;100347.31;5069934;28;1131;-46
2022/09/11 01:20:19;;;;;;;;;;;;;;;16.30;58.05;100349.81;5080568;28;1906;-49
2022/09/11 01:22:50;;;;;;;;;;;;;;;16.20;57.74;100342.47;5058747;28;1235;-49
2022/09/11 01:25:22;;;;;;;;;;;;;;;16.18;57.61;100330.13;5077011;28;969;-47
2022/09/11 01:27:49;;;;;;;;;;;;;;;16.17;57.35;100333.97;5067262;28;1135;-47
2022/09/11 01:30:18;;;;;;;;;;;;;;;16.10;57.42;100334.25;5062604;28;1348;-48
2022/09/11 01:32:58;;;;;;;;;;;;;;;16.08;57.01;100337.28;5076745;28;973;-49
2022/09/11 01:35:26;;;;;;;;;;;;;;;16.03;57.30;100339.22;5081563;28;973;-49
2022/09/11 01:37:54;;;;;;;;;;;;;;;15.99;57.01;100338.16;5058005;28;1126;-49
2022/09/11 01:40:23;;;;;;;;;;;;;;;15.95;56.99;100320.63;5081634;28;1979;-48
2022/09/11 01:42:50;;;;;;;;;;;;;;;15.91;57.27;100320.38;5060661;28;1024;-45
2022/09/11 01:45:16;;;;;;;;;;;;;;;16.16;58.38;100321.34;5061549;28;1067;-50
2022/09/11 01:47:41;;;;;;;;;;;;;;;17.31;58.86;100334.84;5058835;28;1159;-49
2022/09/11 01:50:09;;;;;;;;;;;;;;;16.69;59.41;100335.31;5058305;28;1222;-46
2022/09/11 01:52:39;;;;;;;;;;;;;;;16.41;59.10;100325.88;5072499;28;914;-50
2022/09/11 01:55:25;;;;;;;;;;;;;;;16.35;58.16;100325.09;5058630;28;1129;-49
2022/09/11 01:57:52;;;;;;;;;;;;;;;16.26;58.06;100318.56;5057595;28;1115;-49
2022/09/11 02:00:18;;;;;;;;;;;;;;;16.19;57.65;100310.63;5058687;28;1898;-51
2022/09/11 02:02:52;;;;;;;;;;;;;;;16.15;57.24;100314.25;5038252;28;1335;-49
2022/09/11 02:05:22;;;;;;;;;;;;;;;16.10;57.28;100327.97;5060662;28;1233;-48
2022/09/11 02:07:55;;;;;;;;;;;;;;;16.15;57.86;100319.72;5080146;28;1135;-48
2022/09/11 02:10:23;;;;;;;;;;;;;;;17.45;58.96;100313.81;5046490;28;1354;-48
2022/09/11 02:12:51;;;;;;;;;;;;;;;16.81;59.56;100309.44;5062228;28;1290;-48
2022/09/11 02:15:16;;;;;;;;;;;;;;;16.53;59.10;100300.84;5079117;28;1168;-51
2022/09/11 02:17:43;;;;;;;;;;;;;;;16.44;58.55;100297.88;5069900;28;1119;-47
2022/09/11 02:20:09;;;;;;;;;;;;;;;16.36;58.08;100310.28;5081470;28;1972;-49
2022/09/11 02:22:35;;;;;;;;;;;;;;;16.29;57.71;100314.44;5079684;28;1354;-47
2022/09/11 02:25:01;;;;;;;;;;;;;;;16.23;57.74;100305.44;5080103;28;1084;-47
2022/09/11 02:27:27;;;;;;;;;;;;;;;16.17;57.43;100295.56;5058586;28;1152;-47
2022/09/11 02:29:54;;;;;;;;;;;;;;;16.07;57.44;100302.75;5056132;28;1110;-50
2022/09/11 02:32:20;;;;;;;;;;;;;;;16.10;57.34;100300.53;5041916;28;1454;-50
2022/09/11 02:34:47;;;;;;;;;;;;;;;16.04;57.09;100297.00;5061949;28;1126;-50
2022/09/11 02:37:22;;;;;;;;;;;;;;;16.01;57.12;100290.16;5066325;28;1150;-50
2022/09/11 02:39:47;;;;;;;;;;;;;;;15.96;57.20;100298.41;5078013;28;1969;-50
2022/09/11 02:42:29;;;;;;;;;;;;;;;16.82;58.89;100289.13;5061636;28;1087;-49
2022/09/11 02:45:08;;;;;;;;;;;;;;;17.13;59.41;100297.94;5063814;28;1140;-49
2022/09/11 02:47:37;;;;;;;;;;;;;;;16.64;59.34;100301.59;5068011;28;1162;-48
2022/09/11 02:50:16;;;;;;;;;;;;;;;16.52;58.70;100302.78;5079370;28;1120;-46
2022/09/11 02:53:11;;;;;;;;;;;;;;;16.35;58.44;100296.84;5061121;28;1207;-49
2022/09/11 02:55:44;;;;;;;;;;;;;;;16.24;57.93;100296.91;4975068;28;1232;-50
2022/09/11 02:58:15;;;;;;;;;;;;;;;16.17;57.78;100301.06;5031604;28;1360;-47
2022/09/11 03:00:40;;;;;;;;;;;;;;;16.15;57.50;100303.28;5041467;28;1901;-47
2022/09/11 03:03:07;;;;;;;;;;;;;;;16.08;57.43;100298.91;5025070;28;1124;-50
2022/09/11 03:05:32;;;;;;;;;;;;;;;16.06;57.32;100311.25;5045119;28;1227;-50
2022/09/11 03:08:03;;;;;;;;;;;;;;;16.04;57.37;100319.75;5041430;28;1190;-50
2022/09/11 03:10:28;;;;;;;;;;;;;;;16.54;58.70;100321.69;5041057;28;1336;-47
2022/09/11 03:12:58;;;;;;;;;;;;;;;17.40;58.94;100321.31;5039515;28;1915;-49
2022/09/11 03:15:24;;;;;;;;;;;;;;;16.73;59.42;100324.56;5041065;28;1131;-49
2022/09/11 03:17:50;;;;;;;;;;;;;;;16.50;59.11;100321.44;5043261;28;1203;-48
2022/09/11 03:20:16;;;;;;;;;;;;;;;16.39;58.59;100323.41;5067135;28;1978;-50
2022/09/11 03:22:41;;;;;;;;;;;;;;;16.32;57.95;100322.91;5059807;28;1178;-51
2022/09/11 03:25:07;;;;;;;;;;;;;;;16.26;58.00;100329.53;5058826;28;1060;-48
2022/09/11 03:27:33;;;;;;;;;;;;;;;16.20;57.91;100322.41;5039971;28;1222;-48
2022/09/11 03:29:59;;;;;;;;;;;;;;;16.13;57.76;100320.00;5035230;28;1544;-49
2022/09/11 03:32:24;;;;;;;;;;;;;;;16.10;57.34;100322.47;5028735;28;1300;-47
2022/09/11 03:34:50;;;;;;;;;;;;;;;16.11;57.40;100324.13;5065492;28;1219;-50
2022/09/11 03:37:17;;;;;;;;;;;;;;;17.31;58.99;100329.34;5038049;28;1132;-49
2022/09/11 03:39:44;;;;;;;;;;;;;;;16.89;59.51;100334.38;5042553;28;1975;-50
2022/09/11 03:42:11;;;;;;;;;;;;;;;16.57;59.33;100334.84;5047807;28;1228;-51
2022/09/11 03:44:37;;;;;;;;;;;;;;;16.42;58.54;100341.25;5040156;28;1326;-52
2022/09/11 03:47:04;;;;;;;;;;;;;;;16.40;58.06;100330.56;5040789;28;1226;-52
2022/09/11 03:49:30;;;;;;;;;;;;;;;16.29;57.95;100331.72;5058273;28;958;-51
2022/09/11 03:51:55;;;;;;;;;;;;;;;16.25;57.52;100336.13;5039238;28;1320;-51
2022/09/11 03:54:21;;;;;;;;;;;;;;;16.13;57.80;100338.38;5052809;28;1192;-48
2022/09/11 03:56:48;;;;;;;;;;;;;;;16.10;57.42;100344.44;5040166;28;1356;-48
2022/09/11 03:59:14;;;;;;;;;;;;;;;16.07;57.49;100335.69;5060684;28;1309;-50
2022/09/11 04:01:42;;;;;;;;;;;;;;;16.24;58.18;100339.97;5060307;28;1905;-49
2022/09/11 04:04:07;;;;;;;;;;;;;;;17.21;58.90;100334.97;5077796;28;953;-48
2022/09/11 04:06:38;;;;;;;;;;;;;;;16.67;59.16;100342.22;5069299;28;1264;-50
2022/09/11 04:09:04;;;;;;;;;;;;;;;16.46;58.82;100342.31;5060208;28;1205;-47
2022/09/11 04:11:30;;;;;;;;;;;;;;;16.36;58.26;100336.91;5077769;28;993;-47
2022/09/11 04:13:58;;;;;;;;;;;;;;;16.28;57.98;100338.28;5064067;28;1221;-49
2022/09/11 04:16:31;;;;;;;;;;;;;;;16.23;57.54;100332.84;5053340;28;1410;-48
2022/09/11 04:18:58;;;;;;;;;;;;;;;16.18;57.87;100327.38;5060253;28;1126;-48
2022/09/11 04:21:23;;;;;;;;;;;;;;;16.15;57.71;100330.69;5077962;28;1964;-48
2022/09/11 04:23:52;;;;;;;;;;;;;;;16.12;57.77;100329.34;5059376;28;1362;-48
2022/09/11 04:26:18;;;;;;;;;;;;;;;16.04;57.42;100327.16;5077271;28;1167;-50
2022/09/11 04:28:47;;;;;;;;;;;;;;;16.04;57.15;100341.69;5077959;28;1182;-51
2022/09/11 04:31:13;;;;;;;;;;;;;;;16.00;57.42;100335.13;5059727;28;1134;-50
2022/09/11 04:33:39;;;;;;;;;;;;;;;16.71;59.11;100341.34;5059425;28;1172;-52
2022/09/11 04:36:06;;;;;;;;;;;;;;;17.00;59.35;100339.78;5059269;28;1205;-48
2022/09/11 04:38:32;;;;;;;;;;;;;;;16.55;59.21;100351.59;5059506;28;1118;-50
2022/09/11 04:41:01;;;;;;;;;;;;;;;16.43;58.80;100340.16;5062457;28;1986;-51
2022/09/11 04:43:27;;;;;;;;;;;;;;;16.39;58.08;100336.31;5094563;28;1024;-52
2022/09/11 04:46:03;;;;;;;;;;;;;;;16.21;57.90;100351.50;5059728;28;1207;-51
2022/09/11 04:48:30;;;;;;;;;;;;;;;16.22;57.57;100343.00;5059247;28;1259;-51
2022/09/11 04:51:03;;;;;;;;;;;;;;;16.11;57.65;100357.84;5081493;28;1207;-50
2022/09/11 04:53:28;;;;;;;;;;;;;;;16.10;57.63;100355.41;5071997;28;1110;-53
2022/09/11 04:56:02;;;;;;;;;;;;;;;16.93;59.08;100360.16;5061081;28;1142;-49
2022/09/11 04:58:29;;;;;;;;;;;;;;;16.89;59.34;100361.03;5059052;28;1198;-51
2022/09/11 05:00:56;;;;;;;;;;;;;;;16.62;59.20;100348.56;5076449;28;1992;-51
2022/09/11 05:03:21;;;;;;;;;;;;;;;16.41;58.64;100354.16;5076839;28;985;-51
2022/09/11 05:05:47;;;;;;;;;;;;;;;16.39;58.22;100350.84;5087484;28;1005;-52
2022/09/11 05:08:12;;;;;;;;;;;;;;;16.30;58.09;100341.59;5058535;28;1154;-50
2022/09/11 05:10:38;;;;;;;;;;;;;;;16.24;57.89;100345.44;5058742;28;1249;-51
2022/09/11 05:13:04;;;;;;;;;;;;;;;16.19;57.38;100354.53;5058241;28;1254;-50
2022/09/11 05:15:33;;;;;;;;;;;;;;;16.14;57.53;100349.06;5064771;28;1351;-53
2022/09/11 05:17:58;;;;;;;;;;;;;;;16.08;57.41;100348.25;5065262;28;1246;-50
2022/09/11 05:20:27;;;;;;;;;;;;;;;16.07;57.10;100354.88;5058229;28;1910;-50
2022/09/11 05:22:52;;;;;;;;;;;;;;;16.01;57.48;100353.22;5076393;28;1152;-48
2022/09/11 05:25:18;;;;;;;;;;;;;;;15.97;57.28;100343.91;5058285;28;2031;-52
2022/09/11 05:27:43;;;;;;;;;;;;;;;17.00;59.05;100351.59;5076189;28;965;-52
2022/09/11 05:30:09;;;;;;;;;;;;;;;17.09;59.39;100344.38;5059177;28;1138;-48
2022/09/11 05:32:35;;;;;;;;;;;;;;;16.65;59.25;100345.25;5076075;28;989;-51
2022/09/11 05:35:01;;;;;;;;;;;;;;;16.48;58.95;100342.03;5057321;28;961;-52
2022/09/11 05:37:26;;;;;;;;;;;;;;;16.42;58.47;100342.09;5058257;28;1136;-48
2022/09/11 05:39:52;;;;;;;;;;;;;;;16.31;57.98;100329.50;5058324;28;1913;-52
2022/09/11 05:42:17;;;;;;;;;;;;;;;17.13;58.08;100338.31;5055857;28;1129;-49
2022/09/11 05:44:48;;;;;;;;;;;;;;;16.90;56.87;100335.19;5058192;28;1360;-51
2022/09/11 05:47:14;;;;;;;;;;;;;;;16.56;54.88;100333.22;5058389;28;1350;-53
2022/09/11 05:49:42;;;;;;;;;;;;;;;16.51;52.82;100334.06;5059180;28;1193;-51
2022/09/11 05:52:09;;;;;;;;;;;;;;;16.27;52.18;100331.19;5064068;28;1236;-53
2022/09/11 05:54:35;;;;;;;;;;;;;;;16.33;51.29;100334.72;5056338;28;1227;-52
2022/09/11 05:57:01;;;;;;;;;;;;;;;16.60;52.67;100337.03;5057894;28;1277;-50
2022/09/11 05:59:29;;;;;;;;;;;;;;;16.67;53.28;100331.22;5075983;28;1060;-50
2022/09/11 06:01:55;;;;;;;;;;;;;;;16.52;51.90;100335.72;5058136;28;1902;-52
2022/09/11 06:04:37;;;;;;;;;;;;;;;16.40;50.96;100321.50;5058287;28;1181;-51
2022/09/11 06:07:05;;;;;;;;;;;;;;;17.32;53.15;100327.41;5040425;28;1318;-51
2022/09/11 06:09:30;;;;;;;;;;;;;;;16.73;52.78;100324.56;5057838;28;1149;-53
2022/09/11 06:11:56;;;;;;;;;;;;;;;16.65;51.32;100328.75;5058044;28;1206;-52
2022/09/11 06:14:21;;;;;;;;;;;;;;;16.57;50.58;100321.13;5076025;28;985;-49
2022/09/11 06:16:48;;;;;;;;;;;;;;;16.57;49.99;100327.44;5057837;28;1127;-50
2022/09/11 06:19:15;;;;;;;;;;;;;;;16.52;49.63;100332.13;5056562;28;1178;-49
2022/09/11 06:21:42;;;;;;;;;;;;;;;17.18;51.64;100330.03;5057813;28;1914;-51
2022/09/11 06:24:17;;;;;;;;;;;;;;;16.75;51.01;100327.88;5059708;28;1667;-49
2022/09/11 06:26:45;;;;;;;;;;;;;;;17.23;51.71;100316.25;5065032;28;1441;-47
2022/09/11 06:29:13;;;;;;;;;;;;;;;17.10;51.83;100307.56;5056784;28;1277;-46
2022/09/11 06:31:41;;;;;;;;;;;;;;;16.95;50.86;100321.44;5057690;28;1229;-49
2022/09/11 06:34:10;;;;;;;;;;;;;;;16.77;50.24;100325.66;5061938;28;1151;-50
2022/09/11 06:36:37;;;;;;;;;;;;;;;16.73;49.71;100319.94;5057774;28;1387;-51
2022/09/11 06:39:05;;;;;;;;;;;;;;;16.67;49.29;100328.47;5057646;28;1170;-49
2022/09/11 06:41:32;;;;;;;;;;;;;;;16.64;48.95;100320.81;5060050;28;1976;-48
2022/09/11 06:44:04;;;;;;;;;;;;;;;16.67;48.65;100326.53;5056468;28;1141;-53
2022/09/11 06:46:30;;;;;;;;;;;;;;;16.63;48.35;100324.66;5058707;28;1313;-51
2022/09/11 06:48:57;;;;;;;;;;;;;;;16.55;48.11;100317.84;5061185;28;1158;-45
2022/09/11 06:51:26;;;;;;;;;;;;;;;16.52;48.26;100319.25;5057162;28;1397;-51
2022/09/11 06:54:01;;;;;;;;;;;;;;;17.16;50.36;100324.00;5077357;28;977;-50
2022/09/11 06:56:33;;;;;;;;;;;;;;;16.97;49.43;100330.22;5058919;28;1485;-48
2022/09/11 06:58:59;;;;;;;;;;;;;;;16.71;49.56;100330.34;5041451;28;1214;-48
2022/09/11 07:01:27;;;;;;;;;;;;;;;16.81;48.79;100314.94;5040530;28;1910;-47
2022/09/11 07:03:56;;;;;;;;;;;;;;;16.65;48.74;100331.50;5040692;28;1300;-49
2022/09/11 07:06:23;;;;;;;;;;;;;;;16.65;48.39;100342.50;5058614;28;1337;-50
2022/09/11 07:09:01;;;;;;;;;;;;;;;16.72;48.05;100334.75;5040523;28;1239;-47
2022/09/11 07:11:37;;;;;;;;;;;;;;;17.54;50.45;100332.44;5040386;28;1338;-50
2022/09/11 07:14:05;;;;;;;;;;;;;;;17.03;50.34;100339.22;5039263;28;1103;-51
2022/09/11 07:16:33;;;;;;;;;;;;;;;16.89;49.57;100333.56;5046147;28;1428;-50
2022/09/11 07:18:59;;;;;;;;;;;;;;;16.94;49.06;100341.75;5047329;28;1163;-47
2022/09/11 07:21:25;;;;;;;;;;;;;;;16.80;48.59;100344.28;5040469;28;1917;-46
2022/09/11 07:23:56;;;;;;;;;;;;;;;16.86;48.13;100339.63;5040834;28;1359;-50
2022/09/11 07:26:22;;;;;;;;;;;;;;;17.47;49.68;100348.44;5040709;28;1302;-48
2022/09/11 07:28:51;;;;;;;;;;;;;;;17.03;49.88;100344.72;5040571;28;1143;-50
2022/09/11 07:31:18;;;;;;;;;;;;;;;17.00;49.13;100345.28;5045212;28;1179;-50
2022/09/11 07:33:44;;;;;;;;;;;;;;;16.88;49.02;100353.84;5040607;28;1182;-51
2022/09/11 07:36:11;;;;;;;;;;;;;;;16.88;48.65;100356.59;5040409;28;1563;-53
2022/09/11 07:38:40;;;;;;;;;;;;;;;16.64;48.26;100327.13;5040897;28;1213;-50
2022/09/11 07:41:07;;;;;;;;;;;;;;;16.81;48.02;100347.88;5040229;28;1984;-49
2022/09/11 07:43:34;;;;;;;;;;;;;;;16.83;47.89;100356.63;5038304;28;1162;-50
2022/09/11 07:46:00;;;;;;;;;;;;;;;16.81;48.04;100353.38;5040391;28;1131;-50
2022/09/11 07:48:25;;;;;;;;;;;;;;;16.85;47.60;100354.44;5058099;28;1391;-47
2022/09/11 07:50:58;;;;;;;;;;;;;;;16.74;47.88;100357.22;5040287;28;1310;-49
2022/09/11 07:53:24;;;;;;;;;;;;;;;16.70;47.66;100358.09;5040108;28;1237;-49
2022/09/11 07:55:50;;;;;;;;;;;;;;;16.79;47.63;100347.31;5047355;28;1154;-49
2022/09/11 07:58:16;;;;;;;;;;;;;;;16.63;47.62;100363.91;5038921;28;1109;-48
2022/09/11 08:00:42;;;;;;;;;;;;;;;17.32;49.10;100363.16;5040065;28;1976;-50
2022/09/11 08:03:16;;;;;;;;;;;;;;;16.98;49.29;100364.78;5039670;28;1352;-48
2022/09/11 08:05:42;;;;;;;;;;;;;;;17.00;48.52;100359.00;5057240;28;898;-49
2022/09/11 08:08:10;;;;;;;;;;;;;;;16.99;48.24;100363.69;5041533;28;1363;-49
2022/09/11 08:10:37;;;;;;;;;;;;;;;16.83;48.12;100362.13;5057575;28;1151;-47
2022/09/11 08:13:04;;;;;;;;;;;;;;;16.82;47.89;100358.56;5039544;28;1158;-49
2022/09/11 08:15:31;;;;;;;;;;;;;;;16.85;47.63;100360.75;5048985;28;1123;-50
2022/09/11 08:17:58;;;;;;;;;;;;;;;16.82;47.67;100357.75;5035278;28;1339;-50
2022/09/11 08:20:23;;;;;;;;;;;;;;;16.77;47.77;100351.19;5051923;28;1902;-51
2022/09/11 08:22:49;;;;;;;;;;;;;;;16.81;47.67;100358.84;5039310;28;1357;-49
2022/09/11 08:25:15;;;;;;;;;;;;;;;16.71;47.65;100360.56;5067028;28;949;-49
2022/09/11 08:27:40;;;;;;;;;;;;;;;16.72;47.67;100351.22;5054707;28;1004;-48
2022/09/11 08:30:06;;;;;;;;;;;;;;;16.74;47.51;100356.44;5037102;28;1201;-52
2022/09/11 08:32:32;;;;;;;;;;;;;;;16.76;47.36;100362.47;5032280;28;1099;-49
2022/09/11 08:34:58;;;;;;;;;;;;;;;16.74;47.30;100354.50;5039191;28;1295;-47
2022/09/11 08:37:23;;;;;;;;;;;;;;;16.79;47.05;100356.41;5039493;28;1274;-46
2022/09/11 08:39:49;;;;;;;;;;;;;;;16.77;47.11;100345.72;5039251;28;1131;-45
2022/09/11 08:42:15;;;;;;;;;;;;;;;16.61;47.39;100349.66;5038858;28;1981;-52
2022/09/11 08:44:42;;;;;;;;;;;;;;;16.68;47.31;100343.84;5059433;28;1131;-48
2022/09/11 08:47:21;;;;;;;;;;;;;;;16.71;47.27;100344.09;5039246;28;1414;-50
2022/09/11 08:49:57;;;;;;;;;;;;;;;16.63;47.26;100335.63;5034210;28;1286;-51
2022/09/11 08:52:23;;;;;;;;;;;;;;;16.65;47.07;100334.25;5036769;28;1320;-49
2022/09/11 08:54:49;;;;;;;;;;;;;;;17.72;49.17;100333.63;5035760;28;1306;-47
2022/09/11 08:57:34;;;;;;;;;;;;;;;17.19;49.36;100326.16;5024914;28;1322;-49
2022/09/11 09:00:17;;;;;;;;;;;;;;;17.02;48.78;100338.38;5058860;28;1901;-50
2022/09/11 09:03:11;;;;;;;;;;;;;;;16.86;48.54;100331.38;5043196;28;1391;-50
2022/09/11 09:05:51;;;;;;;;;;;;;;;17.03;47.85;100317.25;5037286;28;1239;-48
2022/09/11 09:08:36;;;;;;;;;;;;;;;16.79;47.75;100328.94;5060108;28;1239;-45
2022/09/11 09:11:13;;;;;;;;;;;;;;;16.85;47.46;100327.78;5076173;28;1087;-47
2022/09/11 09:13:57;;;;;;;;;;;;;;;16.87;47.23;100311.84;5056604;28;1022;-49
2022/09/11 09:16:44;;;;;;;;;;;;;;;16.87;47.06;100314.59;5057619;28;1103;-47
2022/09/11 09:19:13;;;;;;;;;;;;;;;16.84;47.07;100315.16;5055002;28;1304;-49
2022/09/11 09:21:45;;;;;;;;;;;;;;;16.73;47.37;100308.94;5063205;28;1976;-47
2022/09/11 09:24:18;;;;;;;;;;;;;;;16.75;47.30;100312.22;5041958;28;1174;-48
2022/09/11 09:26:49;;;;;;;;;;;;;;;16.77;47.05;100303.69;5042266;28;1327;-49
2022/09/11 09:29:17;;;;;;;;;;;;;;;16.93;47.52;100299.75;5076570;28;1048;-50
2022/09/11 09:31:43;;;;;;;;;;;;;;;17.49;49.23;100299.50;5055236;28;898;-47
2022/09/11 09:34:14;;;;;;;;;;;;;;;17.13;49.37;100308.09;5058320;28;1338;-47
2022/09/11 09:36:45;;;;;;;;;;;;;;;17.04;48.80;100314.22;5038886;28;1159;-49
2022/09/11 09:39:15;;;;;;;;;;;;;;;17.03;48.42;100312.56;5058338;28;1143;-50
2022/09/11 09:41:53;;;;;;;;;;;;;;;17.00;48.02;100313.16;5058475;28;1909;-49
2022/09/11 09:44:32;;;;;;;;;;;;;;;16.92;47.87;100300.84;5055310;28;1328;-49
2022/09/11 09:46:58;;;;;;;;;;;;;;;16.98;47.83;100304.38;5070483;28;961;-49
2022/09/11 09:49:30;;;;;;;;;;;;;;;16.90;47.84;100304.97;5076359;28;1122;-49
2022/09/11 09:52:01;;;;;;;;;;;;;;;16.88;47.64;100304.44;5076317;28;1214;-46
2022/09/11 09:54:28;;;;;;;;;;;;;;;16.87;47.61;100302.78;5076488;28;973;-51
2022/09/11 09:57:03;;;;;;;;;;;;;;;16.89;47.49;100301.44;5056681;28;1212;-50
2022/09/11 09:59:34;;;;;;;;;;;;;;;16.85;47.44;100294.03;5058788;28;1060;-47
2022/09/11 10:01:59;;;;;;;;;;;;;;;16.80;47.27;100302.28;5075887;28;1910;-49
2022/09/11 10:04:26;;;;;;;;;;;;;;;17.58;48.67;100301.31;5057974;28;1123;-51
2022/09/11 10:07:13;;;;;;;;;;;;;;;17.22;49.24;100287.97;5077200;28;1140;-47
2022/09/11 10:09:49;;;;;;;;;;;;;;;17.09;48.54;100289.44;5089198;28;1717;-50
2022/09/11 10:12:24;;;;;;;;;;;;;;;17.06;48.09;100295.50;5074531;28;989;-50
2022/09/11 10:14:51;;;;;;;;;;;;;;;17.05;47.92;100290.31;5071469;28;1104;-52
2022/09/11 10:17:23;;;;;;;;;;;;;;;16.93;48.10;100286.00;5058230;28;1128;-50
2022/09/11 10:19:49;;;;;;;;;;;;;;;17.00;47.85;100304.91;5049563;28;1192;-53
2022/09/11 10:22:24;;;;;;;;;;;;;;;16.91;47.89;100293.72;5060232;28;1910;-51
2022/09/11 10:25:00;;;;;;;;;;;;;;;16.97;47.43;100286.28;5074425;28;976;-50
2022/09/11 10:27:26;;;;;;;;;;;;;;;17.00;47.41;100290.34;5079689;28;997;-49
2022/09/11 10:29:53;;;;;;;;;;;;;;;16.90;47.59;100285.75;5079778;28;961;-52
2022/09/11 10:32:18;;;;;;;;;;;;;;;17.00;47.33;100282.94;5075615;28;1226;-50
2022/09/11 10:34:44;;;;;;;;;;;;;;;16.90;47.62;100264.63;5080043;28;1230;-52
2022/09/11 10:37:15;;;;;;;;;;;;;;;16.91;47.42;100270.94;5083861;28;1146;-48
2022/09/11 10:39:41;;;;;;;;;;;;;;;16.88;47.40;100282.47;5079534;28;1159;-51
2022/09/11 10:42:10;;;;;;;;;;;;;;;16.95;47.28;100276.69;5079400;28;1909;-51
2022/09/11 10:44:36;;;;;;;;;;;;;;;16.88;47.36;100272.31;5059160;28;1231;-50
2022/09/11 10:47:02;;;;;;;;;;;;;;;16.95;47.29;100255.50;5061045;28;1364;-52
2022/09/11 10:49:28;;;;;;;;;;;;;;;16.89;47.31;100273.97;5079210;28;1131;-48
2022/09/11 10:52:23;;;;;;;;;;;;;;;16.94;47.17;100273.09;5061416;28;1168;-51
2022/09/11 10:54:58;;;;;;;;;;;;;;;16.91;47.11;100269.03;5053556;28;1255;-47
2022/09/11 10:57:30;;;;;;;;;;;;;;;17.03;47.40;100263.13;5078106;28;1124;-49
2022/09/11 11:00:20;;;;;;;;;;;;;;;16.87;47.65;100259.69;5085506;28;972;-51
2022/09/11 11:02:46;;;;;;;;;;;;;;;16.94;47.40;100270.34;5068679;28;1247;-51
2022/09/11 11:05:30;;;;;;;;;;;;;;;16.84;47.71;100270.41;5061132;28;977;-51
2022/09/11 11:08:10;;;;;;;;;;;;;;;16.87;47.35;100258.84;5080204;28;848;-51
2022/09/11 11:10:55;;;;;;;;;;;;;;;16.91;47.20;100259.94;5093724;28;1047;-48
2022/09/11 11:13:39;;;;;;;;;;;;;;;16.89;47.20;100268.47;5074985;28;1092;-48
2022/09/11 11:16:04;;;;;;;;;;;;;;;16.89;47.45;100262.16;5091831;28;1135;-51
2022/09/11 11:18:49;;;;;;;;;;;;;;;16.91;47.25;100259.94;5078523;28;1001;-51
2022/09/11 11:21:17;;;;;;;;;;;;;;;16.73;47.29;100255.94;5079869;28;1976;-50
2022/09/11 11:24:01;;;;;;;;;;;;;;;16.82;47.37;100250.66;5077739;28;1044;-51
2022/09/11 11:26:41;;;;;;;;;;;;;;;16.88;47.14;100246.75;5073124;28;985;-49
2022/09/11 11:29:13;;;;;;;;;;;;;;;16.87;47.10;100256.09;5060761;28;1108;-50
2022/09/11 11:31:57;;;;;;;;;;;;;;;16.86;47.16;100246.25;5078155;28;1095;-50
2022/09/11 11:34:32;;;;;;;;;;;;;;;16.83;47.28;100249.53;5081794;28;1076;-49
2022/09/11 11:37:11;;;;;;;;;;;;;;;16.89;47.08;100248.44;5078343;28;1071;-48
2022/09/11 11:39:56;;;;;;;;;;;;;;;16.90;47.03;100226.19;5060343;28;1323;-47
2022/09/11 11:42:37;;;;;;;;;;;;;;;16.96;47.20;100229.69;5078686;28;1976;-50
2022/09/11 11:45:15;;;;;;;;;;;;;;;16.83;47.31;100242.16;5064079;28;1167;-47
2022/09/11 11:47:41;;;;;;;;;;;;;;;16.84;47.33;100238.28;5067498;28;989;-51
2022/09/11 11:50:20;;;;;;;;;;;;;;;16.82;47.31;100223.22;5077920;28;1072;-50
2022/09/11 11:52:51;;;;;;;;;;;;;;;16.83;47.33;100230.31;5055283;28;1066;-47
2022/09/11 11:55:21;;;;;;;;;;;;;;;16.81;47.52;100230.63;5078049;28;1146;-48
2022/09/11 11:58:03;;;;;;;;;;;;;;;16.83;47.47;100213.84;5062771;28;1189;-50
2022/09/11 12:00:28;;;;;;;;;;;;;;;16.85;47.46;100223.44;5056914;28;1914;-48
2022/09/11 12:02:55;;;;;;;;;;;;;;;16.95;46.84;100210.75;5077599;28;1005;-48
2022/09/11 12:05:23;;;;;;;;;;;;;;;16.93;47.08;100213.81;5077883;28;1214;-50
2022/09/11 12:07:48;;;;;;;;;;;;;;;16.83;47.38;100222.09;5075056;28;1143;-51
2022/09/11 12:10:18;;;;;;;;;;;;;;;16.82;47.32;100225.97;5058441;28;1202;-48
2022/09/11 12:12:44;;;;;;;;;;;;;;;16.86;47.16;100207.81;5087979;28;988;-51
2022/09/11 12:15:37;;;;;;;;;;;;;;;16.86;47.27;100214.09;5060413;28;1128;-49
2022/09/11 12:18:14;;;;;;;;;;;;;;;16.91;47.04;100207.75;5066652;28;1499;-50
2022/09/11 12:20:40;;;;;;;;;;;;;;;16.79;47.41;100196.31;5083474;28;1913;-52
2022/09/11 12:23:41;;;;;;;;;;;;;;;16.92;46.98;100207.47;5090685;28;1145;-50
2022/09/11 12:26:07;;;;;;;;;;;;;;;16.85;47.34;100211.66;4984369;28;1070;-50
2022/09/11 12:28:33;;;;;;;;;;;;;;;16.90;47.22;100203.38;5051753;28;1025;-49
2022/09/11 12:31:07;;;;;;;;;;;;;;;16.92;46.84;100212.16;5076585;28;1054;-49
2022/09/11 12:33:42;;;;;;;;;;;;;;;16.87;47.06;100210.25;5080582;28;944;-50
2022/09/11 12:36:11;;;;;;;;;;;;;;;16.87;46.98;100221.25;5077534;28;1028;-48
2022/09/11 12:38:40;;;;;;;;;;;;;;;16.88;47.08;100195.44;5085715;28;1328;-52
2022/09/11 12:41:11;;;;;;;;;;;;;;;17.65;48.06;100192.94;5053919;28;1906;-52
2022/09/11 12:43:40;;;;;;;;;;;;;;;17.30;49.10;100204.06;5053727;28;1045;-46
2022/09/11 12:46:10;;;;;;;;;;;;;;;17.16;48.82;100201.19;5076368;28;973;-49
2022/09/11 12:48:42;;;;;;;;;;;;;;;17.21;48.17;100195.66;5053920;28;1136;-52
2022/09/11 12:51:24;;;;;;;;;;;;;;;17.16;47.87;100206.69;5059285;28;989;-63
2022/09/11 12:53:51;;;;;;;;;;;;;;;17.07;48.12;100190.03;5074104;28;1045;-59
2022/09/11 12:56:18;;;;;;;;;;;;;;;17.10;47.70;100191.38;5058546;28;989;-59
2022/09/11 12:58:44;;;;;;;;;;;;;;;16.96;47.92;100196.72;5090800;28;1243;-63
2022/09/11 13:01:09;;;;;;;;;;;;;;;17.02;47.47;100200.25;5084681;28;1909;-62